sensor_id;sensor_type;location;lat;lon;timestamp;P1;durP1;ratioP1;P2;durP2;ratioP2
12587;SDS011;6359;51.450;7.346;2022-12-18T00:02:12;37.17;;;18.87;;
12587;SDS011;6359;51.450;7.346;2022-12-18T00:04:39;42.13;;;19.67;;
12587;SDS011;6359;51.450;7.346;2022-12-18T00:07:07;34.87;;;18.33;;
12587;SDS011;6359;51.450;7.346;2022-12-18T00:09:34;32.67;;;17.83;;
12587;SDS011;6359;51.450;7.346;2022-12-18T00:12:01;43.23;;;19.07;;
12587;SDS011;6359;51.450;7.346;2022-12-18T00:14:30;29.37;;;15.63;;
12587;SDS011;6359;51.450;7.346;2022-12-18T00:16:57;38.50;;;18.30;;
12587;SDS011;6359;51.450;7.346;2022-12-18T00:19:25;25.13;;;15.27;;
12587;SDS011;6359;51.450;7.346;2022-12-18T00:21:53;29.70;;;15.20;;
12587;SDS011;6359;51.450;7.346;2022-12-18T00:24:20;27.50;;;14.17;;
12587;SDS011;6359;51.450;7.346;2022-12-18T00:26:47;28.27;;;13.63;;
12587;SDS011;6359;51.450;7.346;2022-12-18T00:29:14;33.73;;;14.67;;
12587;SDS011;6359;51.450;7.346;2022-12-18T00:31:43;20.07;;;12.50;;
12587;SDS011;6359;51.450;7.346;2022-12-18T00:34:10;18.03;;;10.17;;
12587;SDS011;6359;51.450;7.346;2022-12-18T00:36:38;22.50;;;11.10;;
12587;SDS011;6359;51.450;7.346;2022-12-18T00:39:05;20.40;;;11.50;;
12587;SDS011;6359;51.450;7.346;2022-12-18T00:41:33;21.87;;;9.73;;
12587;SDS011;6359;51.450;7.346;2022-12-18T00:44:18;21.13;;;9.80;;
12587;SDS011;6359;51.450;7.346;2022-12-18T00:46:46;22.60;;;10.63;;
12587;SDS011;6359;51.450;7.346;2022-12-18T00:49:14;23.17;;;10.57;;
12587;SDS011;6359;51.450;7.346;2022-12-18T00:51:42;20.27;;;8.23;;
12587;SDS011;6359;51.450;7.346;2022-12-18T00:54:09;17.83;;;9.10;;
12587;SDS011;6359;51.450;7.346;2022-12-18T00:56:36;12.60;;;7.70;;
12587;SDS011;6359;51.450;7.346;2022-12-18T00:59:04;15.67;;;8.30;;
12587;SDS011;6359;51.450;7.346;2022-12-18T01:01:31;19.17;;;9.87;;
12587;SDS011;6359;51.450;7.346;2022-12-18T01:04:01;15.30;;;8.27;;
12587;SDS011;6359;51.450;7.346;2022-12-18T01:06:29;13.67;;;8.17;;
12587;SDS011;6359;51.450;7.346;2022-12-18T01:08:56;16.30;;;8.67;;
12587;SDS011;6359;51.450;7.346;2022-12-18T01:11:23;14.53;;;8.03;;
12587;SDS011;6359;51.450;7.346;2022-12-18T01:13:51;16.17;;;7.53;;
12587;SDS011;6359;51.450;7.346;2022-12-18T01:16:18;10.73;;;6.43;;
12587;SDS011;6359;51.450;7.346;2022-12-18T01:18:46;12.97;;;6.70;;
12587;SDS011;6359;51.450;7.346;2022-12-18T01:21:15;10.50;;;6.97;;
12587;SDS011;6359;51.450;7.346;2022-12-18T01:23:46;14.27;;;7.30;;
12587;SDS011;6359;51.450;7.346;2022-12-18T01:26:13;11.60;;;7.57;;
12587;SDS011;6359;51.450;7.346;2022-12-18T01:28:42;15.17;;;8.03;;
12587;SDS011;6359;51.450;7.346;2022-12-18T01:31:13;17.37;;;8.63;;
12587;SDS011;6359;51.450;7.346;2022-12-18T01:33:43;13.13;;;7.70;;
12587;SDS011;6359;51.450;7.346;2022-12-18T01:36:19;13.93;;;7.77;;
12587;SDS011;6359;51.450;7.346;2022-12-18T01:38:47;16.63;;;8.43;;
12587;SDS011;6359;51.450;7.346;2022-12-18T01:41:14;18.23;;;9.27;;
12587;SDS011;6359;51.450;7.346;2022-12-18T01:43:47;16.30;;;8.83;;
12587;SDS011;6359;51.450;7.346;2022-12-18T01:46:16;18.60;;;8.63;;
12587;SDS011;6359;51.450;7.346;2022-12-18T01:48:44;17.07;;;8.47;;
12587;SDS011;6359;51.450;7.346;2022-12-18T01:51:12;15.07;;;8.53;;
12587;SDS011;6359;51.450;7.346;2022-12-18T01:53:41;15.83;;;8.57;;
12587;SDS011;6359;51.450;7.346;2022-12-18T01:56:12;16.10;;;7.87;;
12587;SDS011;6359;51.450;7.346;2022-12-18T01:58:43;18.23;;;8.87;;
12587;SDS011;6359;51.450;7.346;2022-12-18T02:01:19;15.17;;;9.00;;
12587;SDS011;6359;51.450;7.346;2022-12-18T02:03:48;16.27;;;8.57;;
12587;SDS011;6359;51.450;7.346;2022-12-18T02:06:17;17.50;;;10.93;;
12587;SDS011;6359;51.450;7.346;2022-12-18T02:08:50;21.00;;;12.10;;
12587;SDS011;6359;51.450;7.346;2022-12-18T02:11:28;22.93;;;12.47;;
12587;SDS011;6359;51.450;7.346;2022-12-18T02:14:07;29.10;;;13.33;;
12587;SDS011;6359;51.450;7.346;2022-12-18T02:16:43;25.83;;;12.80;;
12587;SDS011;6359;51.450;7.346;2022-12-18T02:19:21;29.73;;;11.70;;
12587;SDS011;6359;51.450;7.346;2022-12-18T02:22:07;20.73;;;11.53;;
12587;SDS011;6359;51.450;7.346;2022-12-18T02:24:49;23.63;;;12.33;;
12587;SDS011;6359;51.450;7.346;2022-12-18T02:27:27;17.43;;;10.97;;
12587;SDS011;6359;51.450;7.346;2022-12-18T02:29:55;23.97;;;12.47;;
12587;SDS011;6359;51.450;7.346;2022-12-18T02:32:27;28.00;;;12.03;;
12587;SDS011;6359;51.450;7.346;2022-12-18T02:34:57;23.93;;;10.77;;
12587;SDS011;6359;51.450;7.346;2022-12-18T02:37:25;18.13;;;10.00;;
12587;SDS011;6359;51.450;7.346;2022-12-18T02:39:54;28.27;;;11.83;;
12587;SDS011;6359;51.450;7.346;2022-12-18T02:42:26;19.37;;;11.27;;
12587;SDS011;6359;51.450;7.346;2022-12-18T02:44:54;11.33;;;6.63;;
12587;SDS011;6359;51.450;7.346;2022-12-18T02:47:22;16.23;;;8.17;;
12587;SDS011;6359;51.450;7.346;2022-12-18T02:49:55;22.23;;;10.07;;
12587;SDS011;6359;51.450;7.346;2022-12-18T02:52:29;16.33;;;9.87;;
12587;SDS011;6359;51.450;7.346;2022-12-18T02:55:05;14.50;;;8.83;;
12587;SDS011;6359;51.450;7.346;2022-12-18T02:57:42;22.27;;;10.60;;
12587;SDS011;6359;51.450;7.346;2022-12-18T03:00:14;17.87;;;9.37;;
12587;SDS011;6359;51.450;7.346;2022-12-18T03:02:45;19.87;;;10.20;;
12587;SDS011;6359;51.450;7.346;2022-12-18T03:05:17;18.63;;;10.87;;
12587;SDS011;6359;51.450;7.346;2022-12-18T03:07:50;19.77;;;9.33;;
12587;SDS011;6359;51.450;7.346;2022-12-18T03:10:25;18.50;;;8.73;;
12587;SDS011;6359;51.450;7.346;2022-12-18T03:12:56;14.80;;;7.20;;
12587;SDS011;6359;51.450;7.346;2022-12-18T03:15:27;10.77;;;6.23;;
12587;SDS011;6359;51.450;7.346;2022-12-18T03:17:59;15.43;;;7.80;;
12587;SDS011;6359;51.450;7.346;2022-12-18T03:20:31;12.50;;;7.03;;
12587;SDS011;6359;51.450;7.346;2022-12-18T03:23:02;11.50;;;6.77;;
12587;SDS011;6359;51.450;7.346;2022-12-18T03:25:32;13.83;;;6.43;;
12587;SDS011;6359;51.450;7.346;2022-12-18T03:28:04;11.10;;;6.60;;
12587;SDS011;6359;51.450;7.346;2022-12-18T03:30:34;12.47;;;6.27;;
12587;SDS011;6359;51.450;7.346;2022-12-18T03:33:07;10.33;;;6.37;;
12587;SDS011;6359;51.450;7.346;2022-12-18T03:35:37;8.47;;;5.30;;
12587;SDS011;6359;51.450;7.346;2022-12-18T03:38:07;7.37;;;3.73;;
12587;SDS011;6359;51.450;7.346;2022-12-18T03:40:35;7.53;;;4.27;;
12587;SDS011;6359;51.450;7.346;2022-12-18T03:43:18;3.40;;;2.67;;
12587;SDS011;6359;51.450;7.346;2022-12-18T03:45:53;3.90;;;3.03;;
12587;SDS011;6359;51.450;7.346;2022-12-18T03:48:26;6.83;;;3.90;;
12587;SDS011;6359;51.450;7.346;2022-12-18T03:50:59;3.33;;;2.67;;
12587;SDS011;6359;51.450;7.346;2022-12-18T03:53:35;2.30;;;2.10;;
12587;SDS011;6359;51.450;7.346;2022-12-18T03:56:05;3.23;;;2.33;;
12587;SDS011;6359;51.450;7.346;2022-12-18T03:58:35;4.43;;;2.80;;
12587;SDS011;6359;51.450;7.346;2022-12-18T04:01:09;2.40;;;2.10;;
12587;SDS011;6359;51.450;7.346;2022-12-18T04:03:39;2.53;;;2.33;;
12587;SDS011;6359;51.450;7.346;2022-12-18T04:06:08;3.80;;;2.90;;
12587;SDS011;6359;51.450;7.346;2022-12-18T04:08:37;4.23;;;2.93;;
12587;SDS011;6359;51.450;7.346;2022-12-18T04:11:05;5.43;;;3.80;;
12587;SDS011;6359;51.450;7.346;2022-12-18T04:13:33;4.60;;;3.03;;
12587;SDS011;6359;51.450;7.346;2022-12-18T04:16:03;3.63;;;3.00;;
12587;SDS011;6359;51.450;7.346;2022-12-18T04:18:30;6.20;;;3.33;;
12587;SDS011;6359;51.450;7.346;2022-12-18T04:20:57;3.37;;;2.83;;
12587;SDS011;6359;51.450;7.346;2022-12-18T04:23:25;4.60;;;2.70;;
12587;SDS011;6359;51.450;7.346;2022-12-18T04:25:52;5.83;;;3.07;;
12587;SDS011;6359;51.450;7.346;2022-12-18T04:28:19;4.87;;;3.10;;
12587;SDS011;6359;51.450;7.346;2022-12-18T04:30:51;3.07;;;2.40;;
12587;SDS011;6359;51.450;7.346;2022-12-18T04:33:18;7.67;;;3.63;;
12587;SDS011;6359;51.450;7.346;2022-12-18T04:35:45;3.30;;;2.80;;
12587;SDS011;6359;51.450;7.346;2022-12-18T04:38:12;4.53;;;3.03;;
12587;SDS011;6359;51.450;7.346;2022-12-18T04:40:40;5.90;;;3.50;;
12587;SDS011;6359;51.450;7.346;2022-12-18T04:43:07;8.63;;;3.20;;
12587;SDS011;6359;51.450;7.346;2022-12-18T04:45:35;4.67;;;3.20;;
12587;SDS011;6359;51.450;7.346;2022-12-18T04:48:04;4.10;;;3.30;;
12587;SDS011;6359;51.450;7.346;2022-12-18T04:50:31;3.67;;;2.90;;
12587;SDS011;6359;51.450;7.346;2022-12-18T04:52:58;3.40;;;2.93;;
12587;SDS011;6359;51.450;7.346;2022-12-18T04:55:26;4.43;;;3.03;;
12587;SDS011;6359;51.450;7.346;2022-12-18T04:57:53;4.70;;;3.00;;
12587;SDS011;6359;51.450;7.346;2022-12-18T05:00:20;3.43;;;2.63;;
12587;SDS011;6359;51.450;7.346;2022-12-18T05:02:48;4.83;;;3.07;;
12587;SDS011;6359;51.450;7.346;2022-12-18T05:05:17;4.13;;;3.00;;
12587;SDS011;6359;51.450;7.346;2022-12-18T05:07:44;3.57;;;2.87;;
12587;SDS011;6359;51.450;7.346;2022-12-18T05:10:11;6.27;;;3.57;;
12587;SDS011;6359;51.450;7.346;2022-12-18T05:12:38;4.37;;;3.13;;
12587;SDS011;6359;51.450;7.346;2022-12-18T05:15:19;6.83;;;3.37;;
12587;SDS011;6359;51.450;7.346;2022-12-18T05:17:47;5.33;;;3.37;;
12587;SDS011;6359;51.450;7.346;2022-12-18T05:20:14;5.53;;;3.13;;
12587;SDS011;6359;51.450;7.346;2022-12-18T05:22:44;4.53;;;2.80;;
12587;SDS011;6359;51.450;7.346;2022-12-18T05:25:11;3.23;;;2.83;;
12587;SDS011;6359;51.450;7.346;2022-12-18T05:27:38;3.60;;;2.87;;
12587;SDS011;6359;51.450;7.346;2022-12-18T05:30:06;3.57;;;2.80;;
12587;SDS011;6359;51.450;7.346;2022-12-18T05:32:34;5.60;;;3.70;;
12587;SDS011;6359;51.450;7.346;2022-12-18T05:35:01;5.30;;;3.27;;
12587;SDS011;6359;51.450;7.346;2022-12-18T05:37:28;4.70;;;2.97;;
12587;SDS011;6359;51.450;7.346;2022-12-18T05:39:57;3.47;;;2.43;;
12587;SDS011;6359;51.450;7.346;2022-12-18T05:42:24;4.03;;;3.47;;
12587;SDS011;6359;51.450;7.346;2022-12-18T05:44:51;5.80;;;3.27;;
12587;SDS011;6359;51.450;7.346;2022-12-18T05:47:18;4.47;;;2.70;;
12587;SDS011;6359;51.450;7.346;2022-12-18T05:49:46;4.17;;;3.23;;
12587;SDS011;6359;51.450;7.346;2022-12-18T05:52:13;5.47;;;3.07;;
12587;SDS011;6359;51.450;7.346;2022-12-18T05:54:40;6.33;;;2.93;;
12587;SDS011;6359;51.450;7.346;2022-12-18T05:57:09;4.60;;;2.90;;
12587;SDS011;6359;51.450;7.346;2022-12-18T05:59:36;4.40;;;3.37;;
12587;SDS011;6359;51.450;7.346;2022-12-18T06:02:03;3.93;;;3.47;;
12587;SDS011;6359;51.450;7.346;2022-12-18T06:04:31;4.07;;;2.87;;
12587;SDS011;6359;51.450;7.346;2022-12-18T06:06:58;4.90;;;3.37;;
12587;SDS011;6359;51.450;7.346;2022-12-18T06:09:25;4.57;;;3.27;;
12587;SDS011;6359;51.450;7.346;2022-12-18T06:11:53;4.20;;;2.90;;
12587;SDS011;6359;51.450;7.346;2022-12-18T06:14:21;4.27;;;3.40;;
12587;SDS011;6359;51.450;7.346;2022-12-18T06:16:49;3.77;;;2.77;;
12587;SDS011;6359;51.450;7.346;2022-12-18T06:19:17;9.03;;;3.40;;
12587;SDS011;6359;51.450;7.346;2022-12-18T06:21:44;2.90;;;2.43;;
12587;SDS011;6359;51.450;7.346;2022-12-18T06:24:12;3.10;;;2.80;;
12587;SDS011;6359;51.450;7.346;2022-12-18T06:26:39;4.07;;;2.83;;
12587;SDS011;6359;51.450;7.346;2022-12-18T06:29:07;3.03;;;2.70;;
12587;SDS011;6359;51.450;7.346;2022-12-18T06:31:35;5.87;;;3.50;;
12587;SDS011;6359;51.450;7.346;2022-12-18T06:34:02;4.40;;;3.80;;
12587;SDS011;6359;51.450;7.346;2022-12-18T06:36:30;6.83;;;3.03;;
12587;SDS011;6359;51.450;7.346;2022-12-18T06:38:57;3.97;;;2.70;;
12587;SDS011;6359;51.450;7.346;2022-12-18T06:41:25;4.67;;;3.30;;
12587;SDS011;6359;51.450;7.346;2022-12-18T06:43:52;3.40;;;2.67;;
12587;SDS011;6359;51.450;7.346;2022-12-18T06:46:19;4.87;;;3.37;;
12587;SDS011;6359;51.450;7.346;2022-12-18T06:48:49;4.13;;;2.80;;
12587;SDS011;6359;51.450;7.346;2022-12-18T06:51:17;4.60;;;3.20;;
12587;SDS011;6359;51.450;7.346;2022-12-18T06:53:45;5.53;;;3.37;;
12587;SDS011;6359;51.450;7.346;2022-12-18T06:56:12;5.40;;;3.47;;
12587;SDS011;6359;51.450;7.346;2022-12-18T06:58:39;4.60;;;2.80;;
12587;SDS011;6359;51.450;7.346;2022-12-18T07:01:07;3.67;;;3.30;;
12587;SDS011;6359;51.450;7.346;2022-12-18T07:03:36;4.87;;;3.20;;
12587;SDS011;6359;51.450;7.346;2022-12-18T07:06:05;5.10;;;2.47;;
12587;SDS011;6359;51.450;7.346;2022-12-18T07:08:32;3.30;;;2.90;;
12587;SDS011;6359;51.450;7.346;2022-12-18T07:11:02;4.70;;;3.07;;
12587;SDS011;6359;51.450;7.346;2022-12-18T07:13:30;4.17;;;2.90;;
12587;SDS011;6359;51.450;7.346;2022-12-18T07:16:02;6.80;;;3.23;;
12587;SDS011;6359;51.450;7.346;2022-12-18T07:18:33;4.77;;;3.53;;
12587;SDS011;6359;51.450;7.346;2022-12-18T07:21:02;4.73;;;2.87;;
12587;SDS011;6359;51.450;7.346;2022-12-18T07:23:31;4.77;;;3.57;;
12587;SDS011;6359;51.450;7.346;2022-12-18T07:26:00;6.43;;;3.43;;
12587;SDS011;6359;51.450;7.346;2022-12-18T07:28:28;4.27;;;3.20;;
12587;SDS011;6359;51.450;7.346;2022-12-18T07:30:55;4.57;;;3.77;;
12587;SDS011;6359;51.450;7.346;2022-12-18T07:33:23;4.43;;;3.33;;
12587;SDS011;6359;51.450;7.346;2022-12-18T07:35:52;5.87;;;3.60;;
12587;SDS011;6359;51.450;7.346;2022-12-18T07:38:21;5.10;;;3.70;;
12587;SDS011;6359;51.450;7.346;2022-12-18T07:40:48;6.63;;;2.93;;
12587;SDS011;6359;51.450;7.346;2022-12-18T07:43:15;10.90;;;3.70;;
12587;SDS011;6359;51.450;7.346;2022-12-18T07:45:42;5.43;;;3.50;;
12587;SDS011;6359;51.450;7.346;2022-12-18T07:48:09;6.63;;;3.40;;
12587;SDS011;6359;51.450;7.346;2022-12-18T07:50:37;6.00;;;3.10;;
12587;SDS011;6359;51.450;7.346;2022-12-18T07:53:04;5.07;;;3.73;;
12587;SDS011;6359;51.450;7.346;2022-12-18T07:55:33;6.17;;;3.83;;
12587;SDS011;6359;51.450;7.346;2022-12-18T07:58:01;10.73;;;4.40;;
12587;SDS011;6359;51.450;7.346;2022-12-18T08:00:29;7.70;;;3.77;;
12587;SDS011;6359;51.450;7.346;2022-12-18T08:02:56;6.70;;;3.70;;
12587;SDS011;6359;51.450;7.346;2022-12-18T08:05:23;5.43;;;3.40;;
12587;SDS011;6359;51.450;7.346;2022-12-18T08:07:50;7.27;;;3.10;;
12587;SDS011;6359;51.450;7.346;2022-12-18T08:10:18;4.20;;;3.17;;
12587;SDS011;6359;51.450;7.346;2022-12-18T08:12:48;6.00;;;3.50;;
12587;SDS011;6359;51.450;7.346;2022-12-18T08:15:16;4.97;;;3.83;;
12587;SDS011;6359;51.450;7.346;2022-12-18T08:17:43;6.90;;;3.33;;
12587;SDS011;6359;51.450;7.346;2022-12-18T08:20:11;7.33;;;3.73;;
12587;SDS011;6359;51.450;7.346;2022-12-18T08:22:39;6.27;;;3.93;;
12587;SDS011;6359;51.450;7.346;2022-12-18T08:25:07;5.70;;;3.57;;
12587;SDS011;6359;51.450;7.346;2022-12-18T08:27:34;7.63;;;3.97;;
12587;SDS011;6359;51.450;7.346;2022-12-18T08:30:03;9.40;;;3.30;;
12587;SDS011;6359;51.450;7.346;2022-12-18T08:32:31;5.20;;;3.63;;
12587;SDS011;6359;51.450;7.346;2022-12-18T08:34:59;4.47;;;3.40;;
12587;SDS011;6359;51.450;7.346;2022-12-18T08:37:26;4.37;;;3.30;;
12587;SDS011;6359;51.450;7.346;2022-12-18T08:39:53;6.40;;;3.80;;
12587;SDS011;6359;51.450;7.346;2022-12-18T08:42:20;6.33;;;3.43;;
12587;SDS011;6359;51.450;7.346;2022-12-18T08:45:08;5.10;;;3.60;;
12587;SDS011;6359;51.450;7.346;2022-12-18T08:47:35;5.87;;;3.20;;
12587;SDS011;6359;51.450;7.346;2022-12-18T08:50:02;4.87;;;3.47;;
12587;SDS011;6359;51.450;7.346;2022-12-18T08:52:31;4.17;;;3.20;;
12587;SDS011;6359;51.450;7.346;2022-12-18T08:54:58;5.00;;;3.37;;
12587;SDS011;6359;51.450;7.346;2022-12-18T08:57:25;4.13;;;3.00;;
12587;SDS011;6359;51.450;7.346;2022-12-18T08:59:53;3.03;;;2.70;;
12587;SDS011;6359;51.450;7.346;2022-12-18T09:02:21;2.50;;;2.23;;
12587;SDS011;6359;51.450;7.346;2022-12-18T09:04:48;4.57;;;2.07;;
12587;SDS011;6359;51.450;7.346;2022-12-18T09:07:15;5.50;;;2.20;;
12587;SDS011;6359;51.450;7.346;2022-12-18T09:09:43;2.35;;;1.80;;
12587;SDS011;6359;51.450;7.346;2022-12-18T09:12:10;2.17;;;1.52;;
12587;SDS011;6359;51.450;7.346;2022-12-18T09:14:37;2.20;;;2.00;;
12587;SDS011;6359;51.450;7.346;2022-12-18T09:17:04;3.78;;;1.85;;
12587;SDS011;6359;51.450;7.346;2022-12-18T09:19:32;2.17;;;1.85;;
12587;SDS011;6359;51.450;7.346;2022-12-18T09:21:59;1.85;;;1.50;;
12587;SDS011;6359;51.450;7.346;2022-12-18T09:24:26;5.10;;;2.10;;
12587;SDS011;6359;51.450;7.346;2022-12-18T09:26:53;2.25;;;1.70;;
12587;SDS011;6359;51.450;7.346;2022-12-18T09:29:21;2.20;;;1.70;;
12587;SDS011;6359;51.450;7.346;2022-12-18T09:31:48;3.35;;;2.10;;
12587;SDS011;6359;51.450;7.346;2022-12-18T09:34:15;3.40;;;1.80;;
12587;SDS011;6359;51.450;7.346;2022-12-18T09:36:44;2.20;;;1.98;;
12587;SDS011;6359;51.450;7.346;2022-12-18T09:39:11;2.42;;;2.08;;
12587;SDS011;6359;51.450;7.346;2022-12-18T09:41:43;2.63;;;2.40;;
12587;SDS011;6359;51.450;7.346;2022-12-18T09:44:14;3.47;;;2.13;;
12587;SDS011;6359;51.450;7.346;2022-12-18T09:46:47;2.70;;;1.85;;
12587;SDS011;6359;51.450;7.346;2022-12-18T09:49:17;2.15;;;1.85;;
12587;SDS011;6359;51.450;7.346;2022-12-18T09:51:49;4.40;;;2.67;;
12587;SDS011;6359;51.450;7.346;2022-12-18T09:54:20;4.90;;;3.53;;
12587;SDS011;6359;51.450;7.346;2022-12-18T09:56:50;2.90;;;2.17;;
12587;SDS011;6359;51.450;7.346;2022-12-18T09:59:22;2.42;;;2.10;;
12587;SDS011;6359;51.450;7.346;2022-12-18T10:01:51;2.63;;;2.28;;
12587;SDS011;6359;51.450;7.346;2022-12-18T10:04:18;5.85;;;3.95;;
12587;SDS011;6359;51.450;7.346;2022-12-18T10:06:46;3.65;;;2.50;;
12587;SDS011;6359;51.450;7.346;2022-12-18T10:09:24;2.58;;;1.98;;
12587;SDS011;6359;51.450;7.346;2022-12-18T10:12:00;4.45;;;2.60;;
12587;SDS011;6359;51.450;7.346;2022-12-18T10:14:34;3.45;;;2.33;;
12587;SDS011;6359;51.450;7.346;2022-12-18T10:17:10;2.95;;;1.70;;
12587;SDS011;6359;51.450;7.346;2022-12-18T10:19:45;3.28;;;2.40;;
12587;SDS011;6359;51.450;7.346;2022-12-18T10:22:21;4.07;;;2.35;;
12587;SDS011;6359;51.450;7.346;2022-12-18T10:24:58;3.30;;;2.15;;
12587;SDS011;6359;51.450;7.346;2022-12-18T10:27:29;2.92;;;2.25;;
12587;SDS011;6359;51.450;7.346;2022-12-18T10:29:56;6.45;;;3.75;;
12587;SDS011;6359;51.450;7.346;2022-12-18T10:32:24;4.22;;;2.50;;
12587;SDS011;6359;51.450;7.346;2022-12-18T10:34:55;3.13;;;2.15;;
12587;SDS011;6359;51.450;7.346;2022-12-18T10:37:25;3.78;;;2.13;;
12587;SDS011;6359;51.450;7.346;2022-12-18T10:40:06;3.17;;;2.13;;
12587;SDS011;6359;51.450;7.346;2022-12-18T10:42:39;2.65;;;2.30;;
12587;SDS011;6359;51.450;7.346;2022-12-18T10:45:10;2.47;;;2.15;;
12587;SDS011;6359;51.450;7.346;2022-12-18T10:47:41;5.97;;;3.55;;
12587;SDS011;6359;51.450;7.346;2022-12-18T10:50:17;2.80;;;2.00;;
12587;SDS011;6359;51.450;7.346;2022-12-18T10:52:53;3.90;;;2.38;;
12587;SDS011;6359;51.450;7.346;2022-12-18T10:55:21;3.67;;;2.70;;
12587;SDS011;6359;51.450;7.346;2022-12-18T10:57:49;6.38;;;3.85;;
12587;SDS011;6359;51.450;7.346;2022-12-18T11:00:23;3.85;;;2.60;;
12587;SDS011;6359;51.450;7.346;2022-12-18T11:02:51;2.83;;;2.13;;
12587;SDS011;6359;51.450;7.346;2022-12-18T11:05:26;2.58;;;1.98;;
12587;SDS011;6359;51.450;7.346;2022-12-18T11:07:56;5.45;;;3.40;;
12587;SDS011;6359;51.450;7.346;2022-12-18T11:10:26;3.22;;;2.55;;
12587;SDS011;6359;51.450;7.346;2022-12-18T11:13:07;6.90;;;4.25;;
12587;SDS011;6359;51.450;7.346;2022-12-18T11:15:42;2.83;;;2.20;;
12587;SDS011;6359;51.450;7.346;2022-12-18T11:18:15;2.80;;;2.20;;
12587;SDS011;6359;51.450;7.346;2022-12-18T11:20:49;3.53;;;1.70;;
12587;SDS011;6359;51.450;7.346;2022-12-18T11:23:20;2.95;;;2.25;;
12587;SDS011;6359;51.450;7.346;2022-12-18T11:25:51;3.45;;;2.22;;
12587;SDS011;6359;51.450;7.346;2022-12-18T11:31:20;2.83;;;1.73;;
12587;SDS011;6359;51.450;7.346;2022-12-18T11:33:51;1.98;;;1.77;;
12587;SDS011;6359;51.450;7.346;2022-12-18T11:36:32;2.30;;;1.73;;
12587;SDS011;6359;51.450;7.346;2022-12-18T11:39:05;2.17;;;1.98;;
12587;SDS011;6359;51.450;7.346;2022-12-18T11:41:43;2.15;;;1.80;;
12587;SDS011;6359;51.450;7.346;2022-12-18T11:44:35;2.67;;;1.90;;
12587;SDS011;6359;51.450;7.346;2022-12-18T11:47:09;4.60;;;2.70;;
12587;SDS011;6359;51.450;7.346;2022-12-18T11:49:46;4.60;;;2.78;;
12587;SDS011;6359;51.450;7.346;2022-12-18T11:52:16;3.63;;;2.22;;
12587;SDS011;6359;51.450;7.346;2022-12-18T11:54:52;4.63;;;3.13;;
12587;SDS011;6359;51.450;7.346;2022-12-18T11:57:25;8.00;;;3.85;;
12587;SDS011;6359;51.450;7.346;2022-12-18T12:00:02;3.85;;;2.70;;
12587;SDS011;6359;51.450;7.346;2022-12-18T12:02:40;4.22;;;2.72;;
12587;SDS011;6359;51.450;7.346;2022-12-18T12:05:25;3.78;;;2.67;;
12587;SDS011;6359;51.450;7.346;2022-12-18T12:08:05;2.47;;;2.28;;
12587;SDS011;6359;51.450;7.346;2022-12-18T12:10:45;7.53;;;3.00;;
12587;SDS011;6359;51.450;7.346;2022-12-18T12:13:23;3.97;;;2.95;;
12587;SDS011;6359;51.450;7.346;2022-12-18T12:16:03;5.22;;;2.25;;
12587;SDS011;6359;51.450;7.346;2022-12-18T12:18:41;4.13;;;2.65;;
12587;SDS011;6359;51.450;7.346;2022-12-18T12:21:18;2.55;;;2.20;;
12587;SDS011;6359;51.450;7.346;2022-12-18T12:23:51;2.67;;;2.15;;
12587;SDS011;6359;51.450;7.346;2022-12-18T12:26:25;4.18;;;2.72;;
12587;SDS011;6359;51.450;7.346;2022-12-18T12:29:00;3.53;;;2.47;;
12587;SDS011;6359;51.450;7.346;2022-12-18T12:31:44;4.60;;;3.17;;
12587;SDS011;6359;51.450;7.346;2022-12-18T12:34:20;3.67;;;2.47;;
12587;SDS011;6359;51.450;7.346;2022-12-18T12:36:52;6.60;;;2.83;;
12587;SDS011;6359;51.450;7.346;2022-12-18T12:39:30;4.90;;;3.13;;
12587;SDS011;6359;51.450;7.346;2022-12-18T12:42:01;4.78;;;3.10;;
12587;SDS011;6359;51.450;7.346;2022-12-18T12:44:48;3.20;;;2.72;;
12587;SDS011;6359;51.450;7.346;2022-12-18T12:47:21;4.15;;;2.70;;
12587;SDS011;6359;51.450;7.346;2022-12-18T12:49:52;8.13;;;2.92;;
12587;SDS011;6359;51.450;7.346;2022-12-18T12:52:23;3.83;;;2.83;;
12587;SDS011;6359;51.450;7.346;2022-12-18T12:54:55;4.07;;;3.05;;
12587;SDS011;6359;51.450;7.346;2022-12-18T12:57:26;4.47;;;2.60;;
12587;SDS011;6359;51.450;7.346;2022-12-18T13:00:00;10.35;;;2.53;;
12587;SDS011;6359;51.450;7.346;2022-12-18T13:02:33;5.53;;;2.70;;
12587;SDS011;6359;51.450;7.346;2022-12-18T13:05:05;4.28;;;3.13;;
12587;SDS011;6359;51.450;7.346;2022-12-18T13:07:40;4.10;;;2.72;;
12587;SDS011;6359;51.450;7.346;2022-12-18T13:10:14;3.70;;;2.90;;
12587;SDS011;6359;51.450;7.346;2022-12-18T13:12:59;4.55;;;2.95;;
12587;SDS011;6359;51.450;7.346;2022-12-18T13:15:28;4.38;;;2.60;;
12587;SDS011;6359;51.450;7.346;2022-12-18T13:18:03;5.57;;;2.83;;
12587;SDS011;6359;51.450;7.346;2022-12-18T13:20:39;4.70;;;2.70;;
12587;SDS011;6359;51.450;7.346;2022-12-18T13:23:27;4.18;;;3.05;;
12587;SDS011;6359;51.450;7.346;2022-12-18T13:25:56;4.40;;;3.22;;
12587;SDS011;6359;51.450;7.346;2022-12-18T13:34:32;5.28;;;3.60;;
12587;SDS011;6359;51.450;7.346;2022-12-18T13:40:15;5.47;;;3.67;;
12587;SDS011;6359;51.450;7.346;2022-12-18T13:43:29;6.18;;;3.30;;
12587;SDS011;6359;51.450;7.346;2022-12-18T13:46:16;5.35;;;3.85;;
12587;SDS011;6359;51.450;7.346;2022-12-18T13:48:49;10.00;;;3.97;;
12587;SDS011;6359;51.450;7.346;2022-12-18T13:51:28;6.13;;;3.50;;
12587;SDS011;6359;51.450;7.346;2022-12-18T13:53:58;7.65;;;4.00;;
12587;SDS011;6359;51.450;7.346;2022-12-18T13:56:27;7.38;;;4.18;;
12587;SDS011;6359;51.450;7.346;2022-12-18T13:59:08;5.93;;;3.90;;
12587;SDS011;6359;51.450;7.346;2022-12-18T14:01:44;6.97;;;3.83;;
12587;SDS011;6359;51.450;7.346;2022-12-18T14:04:17;6.40;;;4.30;;
12587;SDS011;6359;51.450;7.346;2022-12-18T14:06:50;7.68;;;4.07;;
12587;SDS011;6359;51.450;7.346;2022-12-18T14:09:26;6.88;;;4.25;;
12587;SDS011;6359;51.450;7.346;2022-12-18T14:11:56;7.97;;;4.88;;
12587;SDS011;6359;51.450;7.346;2022-12-18T14:14:37;6.90;;;4.68;;
12587;SDS011;6359;51.450;7.346;2022-12-18T14:17:09;9.77;;;5.53;;
12587;SDS011;6359;51.450;7.346;2022-12-18T14:19:40;8.40;;;5.38;;
12587;SDS011;6359;51.450;7.346;2022-12-18T14:22:16;7.50;;;4.90;;
12587;SDS011;6359;51.450;7.346;2022-12-18T14:24:44;6.80;;;4.70;;
12587;SDS011;6359;51.450;7.346;2022-12-18T14:27:12;6.50;;;4.55;;
12587;SDS011;6359;51.450;7.346;2022-12-18T14:29:46;6.82;;;4.88;;
12587;SDS011;6359;51.450;7.346;2022-12-18T14:32:15;8.10;;;4.28;;
12587;SDS011;6359;51.450;7.346;2022-12-18T14:34:43;7.82;;;4.18;;
12587;SDS011;6359;51.450;7.346;2022-12-18T14:37:11;5.47;;;4.30;;
12587;SDS011;6359;51.450;7.346;2022-12-18T14:39:39;7.55;;;4.55;;
12587;SDS011;6359;51.450;7.346;2022-12-18T14:42:09;9.43;;;5.32;;
12587;SDS011;6359;51.450;7.346;2022-12-18T14:44:37;7.28;;;4.53;;
12587;SDS011;6359;51.450;7.346;2022-12-18T14:47:04;7.03;;;4.63;;
12587;SDS011;6359;51.450;7.346;2022-12-18T14:49:33;7.80;;;4.70;;
12587;SDS011;6359;51.450;7.346;2022-12-18T14:52:02;7.93;;;4.75;;
12587;SDS011;6359;51.450;7.346;2022-12-18T14:54:30;10.98;;;5.13;;
12587;SDS011;6359;51.450;7.346;2022-12-18T14:57:00;8.68;;;4.97;;
12587;SDS011;6359;51.450;7.346;2022-12-18T14:59:29;8.90;;;5.75;;
12587;SDS011;6359;51.450;7.346;2022-12-18T15:01:58;10.98;;;5.47;;
12587;SDS011;6359;51.450;7.346;2022-12-18T15:04:30;10.13;;;5.22;;
12587;SDS011;6359;51.450;7.346;2022-12-18T15:07:05;8.13;;;5.28;;
12587;SDS011;6359;51.450;7.346;2022-12-18T15:09:37;8.45;;;5.25;;
12587;SDS011;6359;51.450;7.346;2022-12-18T15:12:15;7.65;;;4.85;;
12587;SDS011;6359;51.450;7.346;2022-12-18T15:14:52;9.15;;;5.22;;
12587;SDS011;6359;51.450;7.346;2022-12-18T15:17:20;8.48;;;5.38;;
12587;SDS011;6359;51.450;7.346;2022-12-18T15:19:51;10.68;;;5.63;;
12587;SDS011;6359;51.450;7.346;2022-12-18T15:22:25;8.70;;;5.75;;
12587;SDS011;6359;51.450;7.346;2022-12-18T15:24:53;11.70;;;5.93;;
12587;SDS011;6359;51.450;7.346;2022-12-18T15:27:26;8.98;;;5.80;;
12587;SDS011;6359;51.450;7.346;2022-12-18T15:32:44;11.32;;;7.47;;